createdAt,value
2018-11-01T00:01:57.701Z,5.30
2018-11-01T00:04:26.079Z,5.93
2018-11-01T00:06:54.532Z,6.80
2018-11-01T00:09:22.865Z,7.00
2018-11-01T00:11:51.312Z,6.40
2018-11-01T00:14:19.676Z,6.63
2018-11-01T00:16:51.089Z,6.57
2018-11-01T00:19:19.472Z,6.70
2018-11-01T00:21:47.928Z,7.90
2018-11-01T00:24:16.373Z,7.27
2018-11-01T00:26:44.745Z,6.63
2018-11-01T00:29:13.189Z,7.57
2018-11-01T00:31:41.618Z,7.67
2018-11-01T00:34:10.049Z,7.07
2018-11-01T00:36:38.476Z,6.20
2018-11-01T00:39:09.536Z,6.20
2018-11-01T00:41:38.209Z,5.63
2018-11-01T00:44:06.669Z,6.33
2018-11-01T00:46:35.169Z,6.40
2018-11-01T00:49:03.913Z,4.60
2018-11-01T00:51:32.320Z,4.70
2018-11-01T00:54:00.908Z,5.60
2018-11-01T00:56:29.305Z,5.20
2018-11-01T00:58:57.721Z,5.60
2018-11-01T01:01:26.197Z,4.90
2018-11-01T01:03:54.633Z,5.03
2018-11-01T01:06:23.101Z,4.67
2018-11-01T01:08:51.640Z,4.43
2018-11-01T01:11:20.054Z,4.97
2018-11-01T01:13:48.460Z,4.40
2018-11-01T01:16:16.658Z,4.53
2018-11-01T01:18:45.072Z,4.13
2018-11-01T01:21:13.504Z,3.80
2018-11-01T01:23:42.034Z,4.50
2018-11-01T01:26:10.469Z,3.70
2018-11-01T01:28:38.837Z,3.97
2018-11-01T01:31:07.293Z,3.77
2018-11-01T01:33:35.749Z,3.93
2018-11-01T01:36:03.846Z,4.00
2018-11-01T01:38:32.041Z,3.80
2018-11-01T01:41:00.522Z,4.23
2018-11-01T01:43:28.925Z,3.60
2018-11-01T01:45:57.293Z,3.77
2018-11-01T01:48:25.741Z,3.83
2018-11-01T01:50:54.234Z,3.40
2018-11-01T01:53:22.653Z,3.43
2018-11-01T01:55:51.117Z,2.93
2018-11-01T01:58:19.557Z,3.40
2018-11-01T02:00:48.050Z,3.43
2018-11-01T02:03:16.433Z,3.40
2018-11-01T02:05:44.841Z,3.20
2018-11-01T02:08:13.426Z,3.33
2018-11-01T02:10:41.823Z,2.90
2018-11-01T02:13:10.266Z,3.20
2018-11-01T02:15:38.830Z,3.20
2018-11-01T02:18:07.281Z,3.00
2018-11-01T02:20:35.702Z,3.13
2018-11-01T02:23:04.302Z,3.20
2018-11-01T02:25:32.770Z,3.27
2018-11-01T02:28:06.338Z,3.40
2018-11-01T02:30:34.703Z,3.33
2018-11-01T02:33:03.227Z,3.23
2018-11-01T02:35:31.789Z,3.17
2018-11-01T02:38:00.384Z,3.30
2018-11-01T02:40:28.719Z,2.70
2018-11-01T02:42:57.155Z,2.67
2018-11-01T02:45:25.663Z,2.70
2018-11-01T02:47:54.198Z,2.77
2018-11-01T02:50:22.659Z,3.10
2018-11-01T02:52:51.046Z,2.70
2018-11-01T02:55:19.503Z,2.70
2018-11-01T02:57:47.899Z,2.47
2018-11-01T03:00:17.223Z,2.53
2018-11-01T03:02:45.741Z,2.40
2018-11-01T03:05:14.594Z,2.50
2018-11-01T03:07:44.120Z,2.57
2018-11-01T03:10:13.770Z,2.50
2018-11-01T03:12:42.435Z,2.30
2018-11-01T03:15:13.026Z,2.40
2018-11-01T03:17:41.466Z,2.70
2018-11-01T03:20:10.878Z,2.60
2018-11-01T03:22:39.381Z,2.60
2018-11-01T03:25:08.619Z,2.60
2018-11-01T03:27:37.177Z,2.47
2018-11-01T03:30:05.982Z,2.33
2018-11-01T03:32:34.371Z,2.67
2018-11-01T03:35:02.818Z,2.70
2018-11-01T03:37:31.231Z,2.63
2018-11-01T03:39:59.640Z,2.60
2018-11-01T03:42:28.096Z,2.50
2018-11-01T03:44:56.500Z,2.33
2018-11-01T03:47:24.968Z,2.60
2018-11-01T03:49:53.353Z,2.50
2018-11-01T03:52:21.749Z,2.50
2018-11-01T03:54:50.203Z,2.60
2018-11-01T03:57:18.624Z,3.10
2018-11-01T03:59:47.052Z,2.90
2018-11-01T04:02:15.487Z,2.77
2018-11-01T04:04:43.920Z,2.77
2018-11-01T04:07:12.400Z,3.03
2018-11-01T04:09:40.808Z,2.77
2018-11-01T04:12:09.238Z,2.80
2018-11-01T04:14:37.741Z,2.70
2018-11-01T04:17:06.293Z,2.50
2018-11-01T04:19:34.693Z,3.00
2018-11-01T04:22:04.648Z,2.70
2018-11-01T04:24:33.520Z,2.50
2018-11-01T04:27:02.284Z,2.87
2018-11-01T04:29:30.600Z,3.07
2018-11-01T04:31:59.001Z,3.00
2018-11-01T04:34:27.073Z,3.00
2018-11-01T04:36:55.199Z,3.10
2018-11-01T04:39:23.277Z,2.80
2018-11-01T04:41:51.421Z,3.00
2018-11-01T04:44:19.519Z,2.87
2018-11-01T04:46:47.853Z,4.87
2018-11-01T04:49:15.954Z,7.47
2018-11-01T04:51:43.976Z,4.93
2018-11-01T04:54:12.457Z,3.57
2018-11-01T04:56:40.781Z,4.20
2018-11-01T04:59:09.378Z,3.90
2018-11-01T05:01:37.777Z,3.77
2018-11-01T05:04:06.137Z,3.83
2018-11-01T05:06:34.469Z,6.03
2018-11-01T05:09:02.835Z,4.17
2018-11-01T05:11:30.948Z,4.60
2018-11-01T05:13:59.227Z,4.80
2018-11-01T05:16:27.566Z,3.20
2018-11-01T05:18:55.897Z,3.23
2018-11-01T05:21:23.985Z,3.10
2018-11-01T05:23:52.089Z,3.40
2018-11-01T05:26:20.413Z,4.27
2018-11-01T05:28:48.794Z,3.40
2018-11-01T05:31:19.861Z,3.37
2018-11-01T05:33:48.230Z,3.10
2018-11-01T05:36:16.570Z,3.23
2018-11-01T05:38:44.906Z,3.03
2018-11-01T05:41:13.250Z,3.40
2018-11-01T05:43:41.568Z,3.10
2018-11-01T05:46:10.143Z,3.20
2018-11-01T05:48:38.469Z,2.93
2018-11-01T05:51:06.818Z,3.03
2018-11-01T05:53:35.173Z,2.83
2018-11-01T05:56:03.499Z,2.90
2018-11-01T05:58:31.798Z,3.30
2018-11-01T06:01:01.914Z,2.90
2018-11-01T06:03:30.226Z,2.90
2018-11-01T06:05:58.633Z,3.07
2018-11-01T06:08:28.594Z,2.80
2018-11-01T06:10:57.098Z,2.80
2018-11-01T06:13:25.414Z,3.20
2018-11-01T06:15:53.761Z,2.93
2018-11-01T06:18:22.178Z,3.30
2018-11-01T06:20:50.506Z,3.57
2018-11-01T06:23:18.842Z,3.23
2018-11-01T06:25:47.192Z,2.90
2018-11-01T06:28:15.542Z,3.00
2018-11-01T06:30:43.854Z,3.33
2018-11-01T06:33:12.237Z,3.10
2018-11-01T06:35:44.667Z,3.27
2018-11-01T06:38:12.991Z,3.70
2018-11-01T06:40:41.298Z,3.50
2018-11-01T06:43:09.682Z,3.37
2018-11-01T06:45:37.726Z,3.10
2018-11-01T06:48:06.133Z,3.00
2018-11-01T06:50:34.143Z,3.77
2018-11-01T06:53:02.212Z,3.40
2018-11-01T06:55:30.414Z,3.73
2018-11-01T06:57:58.488Z,3.50
2018-11-01T07:00:26.530Z,4.07
2018-11-01T07:02:54.591Z,5.10
2018-11-01T07:05:22.642Z,5.83
2018-11-01T07:07:50.718Z,5.27
2018-11-01T07:10:18.799Z,5.13
2018-11-01T07:12:46.851Z,4.80
2018-11-01T07:15:15.954Z,4.83
2018-11-01T07:17:44.165Z,5.53
2018-11-01T07:20:13.611Z,5.50
2018-11-01T07:22:42.648Z,5.07
2018-11-01T07:25:12.114Z,4.40
2018-11-01T07:27:40.278Z,4.97
2018-11-01T07:30:10.053Z,4.70
2018-11-01T07:32:38.439Z,5.30
2018-11-01T07:35:07.444Z,4.57
2018-11-01T07:37:36.297Z,4.87
2018-11-01T07:40:05.585Z,5.13
2018-11-01T07:42:33.879Z,5.40
2018-11-01T07:45:02.248Z,4.93
2018-11-01T07:47:30.632Z,5.00
2018-11-01T07:49:58.968Z,4.90
2018-11-01T07:52:27.290Z,4.07
2018-11-01T07:54:57.271Z,4.47
2018-11-01T07:57:25.640Z,4.63
2018-11-01T07:59:53.963Z,4.97
2018-11-01T08:02:22.379Z,5.20
2018-11-01T08:04:50.699Z,5.27
2018-11-01T08:07:19.054Z,5.67
2018-11-01T08:09:47.378Z,5.40
2018-11-01T08:12:15.710Z,4.90
2018-11-01T08:14:44.030Z,6.73
2018-11-01T08:17:12.437Z,6.60
2018-11-01T08:19:40.892Z,5.50
2018-11-01T08:22:09.154Z,5.47
2018-11-01T08:24:37.507Z,6.30
2018-11-01T08:27:06.150Z,5.80
2018-11-01T08:29:34.454Z,6.80
2018-11-01T08:32:02.779Z,5.90
2018-11-01T08:34:31.073Z,6.83
2018-11-01T08:36:59.431Z,8.77
2018-11-01T08:39:27.845Z,8.67
2018-11-01T08:41:56.134Z,9.80
2018-11-01T08:44:24.474Z,8.07
2018-11-01T08:46:52.826Z,5.33
2018-11-01T08:49:21.235Z,7.13
2018-11-01T08:51:49.655Z,4.80
2018-11-01T08:54:17.979Z,4.20
2018-11-01T08:56:46.313Z,3.63
2018-11-01T08:59:14.665Z,3.80
2018-11-01T09:01:42.983Z,3.57
2018-11-01T09:04:11.454Z,4.00
2018-11-01T09:06:39.788Z,3.70
2018-11-01T09:09:08.573Z,3.87
2018-11-01T09:11:37.340Z,3.90
2018-11-01T09:14:05.994Z,3.80
2018-11-01T09:16:34.324Z,3.50
2018-11-01T09:19:02.765Z,3.53
2018-11-01T09:21:31.080Z,4.27
2018-11-01T09:23:59.437Z,4.10
2018-11-01T09:26:27.772Z,4.20
2018-11-01T09:28:56.093Z,3.80
2018-11-01T09:31:24.169Z,4.50
2018-11-01T09:33:52.241Z,3.80
2018-11-01T09:36:20.361Z,3.90
2018-11-01T09:38:48.473Z,3.40
2018-11-01T09:41:16.553Z,3.97
2018-11-01T09:43:44.602Z,3.77
2018-11-01T09:46:12.721Z,3.60
2018-11-01T09:48:40.919Z,3.20
2018-11-01T09:51:10.799Z,4.00
2018-11-01T09:53:38.888Z,3.90
2018-11-01T09:56:07.027Z,4.03
2018-11-01T09:58:35.029Z,4.73
2018-11-01T10:01:03.130Z,4.23
2018-11-01T10:03:31.230Z,3.47
2018-11-01T10:05:59.326Z,4.00
2018-11-01T10:08:27.349Z,3.90
2018-11-01T10:10:55.401Z,3.90
2018-11-01T10:13:23.471Z,4.60
2018-11-01T10:15:51.744Z,4.17
2018-11-01T10:18:20.010Z,4.10
2018-11-01T10:20:47.720Z,3.73
2018-11-01T10:23:15.765Z,3.90
2018-11-01T10:25:43.860Z,3.60
2018-11-01T10:28:11.938Z,3.67
2018-11-01T10:30:39.986Z,4.03
2018-11-01T10:33:08.078Z,3.80
2018-11-01T10:35:36.138Z,14.33
2018-11-01T10:38:04.206Z,3.93
2018-11-01T10:40:32.310Z,4.20
2018-11-01T10:43:00.337Z,4.30
2018-11-01T10:45:28.426Z,3.90
2018-11-01T10:47:56.510Z,4.10
2018-11-01T10:50:24.570Z,3.93
2018-11-01T10:52:52.793Z,3.67
2018-11-01T10:55:20.906Z,3.90
2018-11-01T10:57:48.986Z,4.50
2018-11-01T11:00:22.658Z,3.63
2018-11-01T11:02:51.992Z,5.67
2018-11-01T11:05:21.121Z,4.37
2018-11-01T11:07:49.414Z,4.13
2018-11-01T11:10:17.770Z,4.27
2018-11-01T11:12:45.878Z,4.50
2018-11-01T11:15:13.922Z,5.17
2018-11-01T11:17:42.194Z,4.33
2018-11-01T11:20:11.191Z,5.37
2018-11-01T11:22:39.190Z,5.60
2018-11-01T11:25:08.354Z,5.23
2018-11-01T11:27:36.425Z,5.73
2018-11-01T11:30:05.761Z,6.10
2018-11-01T11:32:34.145Z,4.10
2018-11-01T11:35:02.519Z,5.07
2018-11-01T11:37:30.850Z,4.10
2018-11-01T11:39:59.204Z,4.43
2018-11-01T11:42:27.618Z,5.00
2018-11-01T11:44:55.954Z,4.43
2018-11-01T11:47:24.306Z,4.50
2018-11-01T11:49:52.728Z,4.30
2018-11-01T11:52:21.075Z,4.40
2018-11-01T11:54:49.418Z,4.50
2018-11-01T11:57:17.830Z,4.10
2018-11-01T11:59:46.142Z,4.83
2018-11-01T12:02:14.577Z,4.57
2018-11-01T12:04:42.874Z,4.67
2018-11-01T12:07:11.207Z,4.73
2018-11-01T12:09:39.557Z,5.10
2018-11-01T12:12:07.887Z,5.20
2018-11-01T12:14:36.216Z,6.17
2018-11-01T12:17:04.831Z,7.23
2018-11-01T12:19:33.129Z,6.67
2018-11-01T12:22:06.095Z,5.60
2018-11-01T12:24:34.466Z,6.63
2018-11-01T12:27:03.206Z,5.20
2018-11-01T12:29:31.762Z,4.80
2018-11-01T12:32:00.120Z,5.23
2018-11-01T12:34:28.497Z,5.53
2018-11-01T12:36:56.875Z,6.17
2018-11-01T12:39:25.405Z,4.60
2018-11-01T12:41:53.766Z,5.37
2018-11-01T12:44:22.200Z,5.27
2018-11-01T12:46:50.630Z,5.40
2018-11-01T12:49:19.032Z,6.10
2018-11-01T12:51:47.365Z,6.00
2018-11-01T12:54:15.802Z,5.67
2018-11-01T12:56:44.144Z,5.60
2018-11-01T12:59:12.536Z,5.10
2018-11-01T13:01:40.941Z,4.87
2018-11-01T13:04:09.344Z,5.90
2018-11-01T13:06:37.853Z,4.80
2018-11-01T13:09:09.661Z,5.70
2018-11-01T13:11:37.984Z,5.10
2018-11-01T13:14:06.460Z,4.80
2018-11-01T13:16:34.800Z,5.07
2018-11-01T13:19:03.348Z,7.70
2018-11-01T13:21:31.793Z,8.67
2018-11-01T13:24:00.189Z,5.47
2018-11-01T13:26:28.540Z,5.90
2018-11-01T13:28:57.364Z,6.07
2018-11-01T13:31:25.817Z,6.03
2018-11-01T13:33:54.205Z,6.00
2018-11-01T13:36:22.557Z,7.20
2018-11-01T13:38:50.951Z,13.27
2018-11-01T13:41:19.370Z,11.47
2018-11-01T13:43:47.670Z,9.73
2018-11-01T13:46:16.034Z,7.20
2018-11-01T13:48:44.349Z,5.60
2018-11-01T13:51:12.709Z,5.47
2018-11-01T13:53:41.058Z,5.47
2018-11-01T13:56:09.373Z,5.73
2018-11-01T13:58:37.805Z,6.00
2018-11-01T14:01:06.516Z,6.33
2018-11-01T14:03:34.841Z,7.13
2018-11-01T14:06:03.333Z,7.53
2018-11-01T14:08:31.686Z,5.30
2018-11-01T14:11:00.046Z,5.43
2018-11-01T14:13:28.533Z,7.13
2018-11-01T14:15:56.757Z,6.30
2018-11-01T14:18:25.297Z,6.20
2018-11-01T14:20:53.682Z,6.37
2018-11-01T14:23:22.118Z,5.90
2018-11-01T14:25:50.598Z,8.30
2018-11-01T14:28:19.018Z,6.47
2018-11-01T14:30:50.333Z,5.90
2018-11-01T14:33:18.542Z,5.87
2018-11-01T14:35:46.619Z,5.77
2018-11-01T14:38:14.766Z,5.87
2018-11-01T14:40:42.890Z,5.77
2018-11-01T14:43:10.980Z,5.67
2018-11-01T14:45:39.088Z,5.80
2018-11-01T14:48:07.207Z,6.60
2018-11-01T14:50:35.538Z,6.50
2018-11-01T14:53:04.813Z,7.10
2018-11-01T14:55:33.489Z,7.20
2018-11-01T14:58:02.308Z,7.10
2018-11-01T15:00:29.410Z,6.60
2018-11-01T15:02:57.847Z,6.40
2018-11-01T15:05:26.234Z,6.50
2018-11-01T15:07:54.644Z,6.50
2018-11-01T15:10:23.013Z,7.80
2018-11-01T15:12:51.412Z,8.90
2018-11-01T15:15:19.759Z,8.67
2018-11-01T15:17:48.410Z,9.37
2018-11-01T15:20:16.802Z,9.33
2018-11-01T15:22:45.154Z,9.17
2018-11-01T15:25:13.534Z,8.10
2018-11-01T15:27:41.883Z,7.40
2018-11-01T15:30:13.313Z,8.73
2018-11-01T15:32:41.731Z,8.53
2018-11-01T15:35:10.126Z,9.23
2018-11-01T15:37:38.607Z,8.80
2018-11-01T15:40:08.855Z,9.60
2018-11-01T15:42:37.179Z,9.07
2018-11-01T15:45:06.818Z,11.77
2018-11-01T15:47:35.320Z,17.13
2018-11-01T15:50:03.406Z,17.87
2018-11-01T15:52:31.586Z,16.23
2018-11-01T15:54:59.966Z,18.27
2018-11-01T15:57:28.158Z,16.80
2018-11-01T15:59:56.446Z,16.07
2018-11-01T16:02:24.624Z,14.10
2018-11-01T16:04:52.659Z,12.70
2018-11-01T16:07:20.750Z,14.43
2018-11-01T16:09:49.071Z,12.33
2018-11-01T16:12:17.136Z,13.33
2018-11-01T16:14:45.231Z,11.93
2018-11-01T16:17:13.388Z,9.20
2018-11-01T16:19:41.937Z,9.27
2018-11-01T16:22:10.075Z,9.50
2018-11-01T16:24:38.201Z,9.00
2018-11-01T16:27:06.763Z,8.93
2018-11-01T16:29:35.132Z,8.97
2018-11-01T16:32:03.708Z,9.67
2018-11-01T16:34:32.125Z,9.70
2018-11-01T16:37:01.070Z,9.20
2018-11-01T16:39:29.468Z,8.43
2018-11-01T16:41:57.596Z,8.17
2018-11-01T16:44:25.676Z,8.57
2018-11-01T16:46:53.844Z,8.50
2018-11-01T16:49:28.368Z,8.13
2018-11-01T16:51:56.458Z,7.70
2018-11-01T16:54:24.725Z,9.00
2018-11-01T16:56:52.993Z,8.53
2018-11-01T16:59:21.189Z,8.40
2018-11-01T17:01:50.028Z,9.13
2018-11-01T17:04:18.341Z,7.83
2018-11-01T17:06:46.460Z,7.60
2018-11-01T17:09:14.605Z,7.80
2018-11-01T17:11:42.697Z,9.30
2018-11-01T17:14:10.794Z,7.80
2018-11-01T17:16:38.885Z,8.40
2018-11-01T17:19:07.532Z,10.20
2018-11-01T17:21:35.882Z,11.43
2018-11-01T17:24:04.168Z,9.00
2018-11-01T17:26:32.289Z,8.67
2018-11-01T17:29:00.393Z,10.20
2018-11-01T17:31:28.888Z,9.17
2018-11-01T17:33:57.161Z,8.30
2018-11-01T17:36:25.154Z,8.50
2018-11-01T17:38:53.320Z,11.17
2018-11-01T17:41:22.481Z,10.00
2018-11-01T17:43:50.654Z,12.47
2018-11-01T17:46:18.796Z,11.07
2018-11-01T17:48:46.957Z,15.23
2018-11-01T17:51:15.123Z,16.10
2018-11-01T17:53:43.157Z,13.43
2018-11-01T17:56:11.736Z,14.90
2018-11-01T17:58:40.313Z,15.73
2018-11-01T18:01:08.688Z,15.20
2018-11-01T18:03:37.309Z,15.27
2018-11-01T18:06:05.945Z,13.67
2018-11-01T18:08:34.491Z,14.27
2018-11-01T18:11:03.785Z,14.03
2018-11-01T18:13:32.165Z,13.50
2018-11-01T18:16:00.626Z,13.90
2018-11-01T18:18:29.050Z,15.27
2018-11-01T18:20:57.396Z,18.50
2018-11-01T18:23:26.091Z,14.87
2018-11-01T18:25:54.114Z,13.87
2018-11-01T18:28:22.309Z,10.83
2018-11-01T18:30:50.421Z,9.97
2018-11-01T18:33:23.977Z,10.57
2018-11-01T18:35:52.421Z,11.80
2018-11-01T18:38:20.869Z,12.40
2018-11-01T18:40:49.497Z,15.00
2018-11-01T18:43:18.233Z,12.13
2018-11-01T18:45:46.672Z,12.57
2018-11-01T18:48:15.190Z,11.47
2018-11-01T18:50:43.579Z,10.83
2018-11-01T18:53:11.985Z,9.83
2018-11-01T18:55:40.589Z,9.33
2018-11-01T18:58:09.413Z,9.97
2018-11-01T19:00:37.927Z,10.40
2018-11-01T19:03:06.521Z,11.20
2018-11-01T19:05:35.297Z,11.60
2018-11-01T19:08:03.845Z,10.63
2018-11-01T19:10:32.249Z,11.23
2018-11-01T19:13:00.687Z,11.30
2018-11-01T19:15:29.142Z,11.07
2018-11-01T19:17:58.011Z,11.20
2018-11-01T19:20:26.442Z,11.97
2018-11-01T19:22:54.839Z,10.27
2018-11-01T19:25:23.468Z,10.23
2018-11-01T19:27:51.936Z,11.13
2018-11-01T19:30:20.410Z,11.10
2018-11-01T19:32:48.927Z,10.53
2018-11-01T19:35:17.430Z,10.60
2018-11-01T19:37:46.037Z,10.60
2018-11-01T19:40:15.821Z,10.40
2018-11-01T19:42:44.955Z,10.40
2018-11-01T19:45:13.340Z,11.23
2018-11-01T19:47:41.857Z,10.00
2018-11-01T19:50:13.245Z,11.37
2018-11-01T19:52:41.804Z,10.70
2018-11-01T19:55:10.468Z,11.23
2018-11-01T19:57:38.994Z,11.47
2018-11-01T20:00:10.482Z,10.63
2018-11-01T20:02:39.051Z,10.40
2018-11-01T20:05:08.755Z,10.57
2018-11-01T20:07:37.404Z,9.97
2018-11-01T20:10:07.477Z,9.77
2018-11-01T20:12:35.892Z,10.60
2018-11-01T20:15:05.729Z,9.83
2018-11-01T20:17:34.331Z,9.47
2018-11-01T20:20:02.780Z,9.23
2018-11-01T20:22:31.178Z,9.37
2018-11-01T20:24:59.556Z,9.30
2018-11-01T20:27:28.234Z,8.53
2018-11-01T20:29:56.593Z,9.17
2018-11-01T20:32:25.156Z,9.57
2018-11-01T20:34:53.545Z,9.03
2018-11-01T20:37:22.080Z,8.53
2018-11-01T20:39:50.540Z,8.77
2018-11-01T20:42:18.855Z,8.10
2018-11-01T20:44:47.196Z,8.07
2018-11-01T20:47:15.555Z,8.60
2018-11-01T20:49:43.877Z,9.73
2018-11-01T20:52:12.252Z,8.67
2018-11-01T20:54:40.591Z,9.53
2018-11-01T20:57:08.996Z,7.90
2018-11-01T20:59:37.260Z,9.70
2018-11-01T21:02:05.649Z,9.87
2018-11-01T21:04:33.981Z,10.13
2018-11-01T21:07:02.321Z,8.30
2018-11-01T21:09:30.692Z,7.80
2018-11-01T21:11:59.164Z,8.63
2018-11-01T21:14:27.396Z,8.17
2018-11-01T21:16:55.821Z,7.43
2018-11-01T21:19:24.106Z,7.10
2018-11-01T21:21:52.504Z,7.17
2018-11-01T21:24:20.832Z,7.73
2018-11-01T21:26:49.205Z,7.80
2018-11-01T21:29:17.584Z,8.00
2018-11-01T21:31:45.953Z,8.47
2018-11-01T21:34:14.420Z,7.33
2018-11-01T21:36:42.785Z,7.80
2018-11-01T21:39:11.125Z,7.80
2018-11-01T21:41:39.488Z,7.70
2018-11-01T21:44:07.945Z,7.50
2018-11-01T21:46:36.320Z,7.33
2018-11-01T21:49:04.863Z,7.53
2018-11-01T21:51:33.325Z,7.50
2018-11-01T21:54:01.788Z,7.03
2018-11-01T21:56:32.126Z,7.03
2018-11-01T21:59:01.549Z,7.07
2018-11-01T22:01:30.041Z,7.67
2018-11-01T22:03:58.431Z,8.43
2018-11-01T22:06:26.797Z,8.10
2018-11-01T22:08:55.125Z,7.33
2018-11-01T22:11:23.510Z,7.87
2018-11-01T22:13:51.880Z,7.50
2018-11-01T22:16:20.249Z,8.17
2018-11-01T22:18:48.737Z,7.47
2018-11-01T22:21:17.257Z,7.63
2018-11-01T22:23:45.705Z,8.20
2018-11-01T22:26:20.630Z,7.97
2018-11-01T22:28:49.130Z,7.60
2018-11-01T22:31:17.462Z,7.27
2018-11-01T22:33:45.828Z,7.03
2018-11-01T22:36:14.433Z,7.90
2018-11-01T22:38:42.939Z,7.87
2018-11-01T22:41:11.313Z,7.77
2018-11-01T22:43:39.692Z,7.50
2018-11-01T22:46:08.044Z,7.40
2018-11-01T22:48:36.446Z,7.50
2018-11-01T22:51:04.937Z,7.13
2018-11-01T22:53:33.289Z,7.43
2018-11-01T22:56:01.758Z,7.80
2018-11-01T22:58:30.129Z,7.37
2018-11-01T23:00:58.547Z,7.10
2018-11-01T23:03:26.898Z,7.43
2018-11-01T23:05:55.350Z,7.60
2018-11-01T23:08:23.674Z,7.90
2018-11-01T23:10:52.017Z,7.13
2018-11-01T23:13:20.366Z,7.67
2018-11-01T23:15:48.826Z,7.73
2018-11-01T23:18:17.369Z,7.83
2018-11-01T23:20:45.746Z,8.20
2018-11-01T23:23:14.138Z,8.47
2018-11-01T23:25:42.478Z,8.30
2018-11-01T23:28:10.864Z,7.80
2018-11-01T23:30:39.214Z,7.77
2018-11-01T23:33:08.223Z,8.90
2018-11-01T23:35:36.466Z,7.87
2018-11-01T23:38:10.594Z,7.93
2018-11-01T23:40:44.278Z,8.77
2018-11-01T23:43:18.019Z,9.03
2018-11-01T23:45:51.730Z,9.40
2018-11-01T23:48:19.330Z,8.90
2018-11-01T23:50:49.370Z,9.23
2018-11-01T23:53:21.206Z,9.27
2018-11-01T23:55:50.054Z,9.40
2018-11-01T23:58:18.554Z,9.23
